| time (UTC) | temp C | wind direction | speed KPH | gust KPH | rain 1hr cm | rain 24hr cm | rain mn cm | humidity % | barometer mb |
| 20260507072859 | 22 | 270 | 9.7 | 11.3 | 14.02 | 0.00 | 0.00 | 72 | 41.8 |
| 20260507072518 | 22 | 270 | 9.7 | 11.3 | 14.02 | 0.00 | 0.00 | 72 | 41.8 |
| 20260507071910 | 22 | 286 | 6.4 | 9.7 | 14.02 | 0.00 | 0.00 | 72 | 42.2 |
| 20260507071336 | 21 | 289 | 4.8 | 8.0 | 14.02 | 0.00 | 0.00 | 71 | 42.8 |
| 20260507070724 | 22 | 295 | 4.8 | 9.7 | 14.02 | 0.00 | 0.00 | 72 | 41.8 |
| 20260507070020 | 22 | 299 | 6.4 | 9.7 | 14.02 | 0.00 | 0.00 | 72 | 40.9 |
| 20260507065623 | 21 | 299 | 6.4 | 8.0 | 14.02 | 0.00 | 0.00 | 71 | 40.0 |
| 20260507065047 | 21 | 293 | 4.8 | 6.4 | 14.02 | 0.00 | 0.00 | 71 | 39.2 |
| 20260507064521 | 21 | 290 | 3.2 | 6.4 | 14.02 | 0.00 | 0.00 | 71 | 38.2 |
| 20260507064021 | 21 | 285 | 4.8 | 6.4 | 14.02 | 0.00 | 0.00 | 71 | 37.4 |
| 20260507063525 | 22 | 272 | 4.8 | 8.0 | 14.02 | 0.00 | 0.00 | 72 | 35.8 |
| 20260507063042 | 22 | 264 | 6.4 | 8.0 | 14.02 | 0.00 | 0.00 | 72 | 36.0 |
| 20260507062605 | 22 | 258 | 6.4 | 8.0 | 14.02 | 0.00 | 0.00 | 72 | 35.3 |
| 20260507062059 | 22 | 268 | 6.4 | 8.0 | 14.02 | 0.00 | 0.00 | 72 | 35.4 |
| 20260507061521 | 22 | 264 | 8.0 | 9.7 | 14.02 | 0.00 | 0.00 | 72 | 35.9 |
| 20260507061041 | 22 | 265 | 9.7 | 9.7 | 14.02 | 0.00 | 0.00 | 72 | 35.7 |
| 20260507060554 | 22 | 276 | 6.4 | 9.7 | 14.02 | 0.00 | 0.00 | 72 | 37.0 |
| 20260507060042 | 22 | 279 | 8.0 | 9.7 | 14.02 | 0.00 | 0.00 | 73 | 35.2 |
| 20260507055540 | 22 | 272 | 8.0 | 9.7 | 14.02 | 0.00 | 0.00 | 73 | 34.0 |
| 20260507055101 | 22 | 270 | 6.4 | 8.0 | 14.02 | 0.00 | 0.00 | 72 | 36.1 |
| 20260507054522 | 22 | 287 | 4.8 | 6.4 | 14.05 | 0.00 | 0.00 | 72 | 37.1 |
| 20260507054021 | 21 | 283 | 4.8 | 8.0 | 14.05 | 0.00 | 0.00 | 71 | 37.4 |
| 20260507053524 | 21 | 271 | 3.2 | 4.8 | 14.05 | 0.00 | 0.00 | 71 | 38.1 |
| 20260507053021 | 21 | 275 | 3.2 | 4.8 | 14.05 | 0.00 | 0.00 | 71 | 37.6 |
| 20260507052553 | 22 | 284 | 3.2 | 4.8 | 14.07 | 0.00 | 0.00 | 72 | 36.2 |
| 20260507052040 | 21 | 280 | 4.8 | 4.8 | 14.07 | 0.00 | 0.00 | 71 | 37.3 |
| 20260507051522 | 21 | 283 | 3.2 | 4.8 | 14.07 | 0.00 | 0.00 | 71 | 37.6 |
| 20260507051040 | 21 | 301 | 4.8 | 6.4 | 14.10 | 0.00 | 0.00 | 71 | 36.6 |
| 20260507050523 | 22 | 304 | 6.4 | 8.0 | 14.10 | 0.00 | 0.00 | 72 | 35.8 |
| 20260507050021 | 21 | 314 | 8.0 | 9.7 | 14.10 | 0.00 | 0.00 | 71 | 35.9 |
| 20260507045602 | 21 | 313 | 6.4 | 8.0 | 14.12 | 0.00 | 0.00 | 71 | 37.0 |
| 20260507045104 | 22 | 321 | 3.2 | 4.8 | 14.12 | 0.00 | 0.00 | 72 | 37.3 |
| 20260507044522 | 22 | 360 | 3.2 | 4.8 | 14.15 | 0.00 | 0.00 | 72 | 37.0 |
| 20260507044043 | 22 | 321 | 4.8 | 6.4 | 14.15 | 0.00 | 0.00 | 73 | 35.9 |
| 20260507043522 | 22 | 308 | 3.2 | 6.4 | 14.15 | 0.00 | 0.00 | 73 | 35.7 |
| 20260507043043 | 23 | 272 | 0.0 | 1.6 | 14.15 | 0.00 | 0.00 | 74 | 35.3 |
| 20260507042607 | 23 | 238 | 1.6 | 4.8 | 14.17 | 0.00 | 0.00 | 75 | 33.9 |
| 20260507042107 | 24 | 244 | 4.8 | 8.0 | 14.17 | 0.00 | 0.00 | 76 | 32.2 |
| 20260507041543 | 24 | 235 | 6.4 | 8.0 | 14.17 | 0.00 | 0.00 | 76 | 30.6 |
| 20260507041056 | 25 | 227 | 6.4 | 8.0 | 14.17 | 0.00 | 0.00 | 77 | 30.3 |
| 20260507040607 | 25 | 224 | 6.4 | 9.7 | 14.17 | 0.00 | 0.00 | 77 | 30.5 |
| 20260507040020 | 25 | 225 | 6.4 | 8.0 | 14.17 | 0.00 | 0.00 | 77 | 30.7 |
| 20260507035556 | 25 | 220 | 8.0 | 9.7 | 14.15 | 0.00 | 0.00 | 77 | 30.6 |
| 20260507035044 | 25 | 218 | 8.0 | 11.3 | 14.15 | 0.00 | 0.00 | 77 | 30.4 |
| 20260507034603 | 25 | 224 | 6.4 | 9.7 | 14.15 | 0.00 | 0.00 | 77 | 30.6 |
| 20260507034023 | 25 | 220 | 8.0 | 9.7 | 14.17 | 0.00 | 0.00 | 78 | 29.6 |
| 20260507033545 | 25 | 214 | 8.0 | 9.7 | 14.17 | 0.00 | 0.00 | 78 | 29.1 |
| 20260507033023 | 25 | 209 | 8.0 | 9.7 | 14.33 | 0.00 | 0.00 | 78 | 29.1 |
| 20260507032622 | 25 | 203 | 9.7 | 11.3 | 15.11 | 0.00 | 0.00 | 77 | 30.4 |
| 20260507032101 | 25 | 205 | 9.7 | 11.3 | 16.54 | 0.00 | 0.00 | 77 | 31.6 |
| 20260507031541 | 25 | 215 | 9.7 | 11.3 | 19.00 | 0.00 | 0.00 | 78 | 30.7 |
| 20260507031044 | 25 | 218 | 8.0 | 9.7 | 2.62 | 0.00 | 0.00 | 77 | 31.1 |
| 20260507030600 | 25 | 203 | 8.0 | 9.7 | 3.73 | 0.00 | 0.00 | 78 | 31.8 |
| 20260507030055 | 25 | 191 | 9.7 | 12.9 | 5.21 | 0.00 | 0.00 | 78 | 30.5 |
| 20260507025648 | 25 | 194 | 8.0 | 9.7 | 7.01 | 0.00 | 0.00 | 78 | 30.9 |
| 20260507025137 | 25 | 202 | 8.0 | 9.7 | 9.22 | 0.00 | 0.00 | 78 | 31.7 |
| 20260507024603 | 26 | 204 | 8.0 | 9.7 | 11.81 | 0.00 | 0.00 | 79 | 31.1 |
| 20260507024041 | 26 | 204 | 9.7 | 11.3 | 14.81 | 0.00 | 0.00 | 79 | 31.0 |
| 20260507023543 | 26 | 203 | 9.7 | 11.3 | 18.21 | 0.00 | 0.00 | 79 | 31.1 |
| 20260507023041 | 26 | 204 | 9.7 | 11.3 | 22.07 | 0.00 | 0.00 | 80 | 30.1 |
| 20260507022609 | 26 | 199 | 8.0 | 9.7 | 2.62 | 0.00 | 0.00 | 80 | 30.3 |
| 20260507022042 | 27 | 203 | 6.4 | 9.7 | 3.10 | 0.00 | 0.00 | 81 | 28.8 |
| 20260507021521 | 27 | 184 | 8.0 | 12.9 | 3.58 | 0.00 | 0.00 | 82 | 27.2 |
| 20260507021042 | 27 | 172 | 4.8 | 8.0 | 4.09 | 0.00 | 0.00 | 82 | 26.8 |
| 20260507020523 | 27 | 164 | 6.4 | 11.3 | 4.60 | 0.00 | 0.00 | 82 | 25.9 |
| 20260507020020 | 27 | 154 | 8.0 | 11.3 | 5.13 | 0.00 | 0.00 | 82 | 25.5 |
| 20260507015608 | 28 | 150 | 9.7 | 14.5 | 5.66 | 0.00 | 0.00 | 83 | 25.6 |
| 20260507015045 | 28 | 146 | 11.3 | 16.1 | 6.22 | 0.00 | 0.00 | 83 | 25.6 |
| 20260507014522 | 28 | 149 | 11.3 | 16.1 | 6.78 | 0.00 | 0.00 | 83 | 26.0 |
| 20260507014021 | 28 | 152 | 9.7 | 16.1 | 7.34 | 0.00 | 0.00 | 83 | 26.0 |
| 20260507013523 | 28 | 152 | 9.7 | 16.1 | 7.92 | 0.00 | 0.00 | 84 | 25.5 |
| 20260507013020 | 28 | 150 | 12.9 | 17.7 | 8.48 | 0.00 | 0.00 | 84 | 24.8 |
| 20260507012610 | 28 | 149 | 14.5 | 19.3 | 9.07 | 0.00 | 0.00 | 84 | 24.1 |
| 20260507012100 | 28 | 142 | 9.7 | 16.1 | 9.63 | 0.00 | 0.00 | 84 | 23.8 |
| 20260507011604 | 28 | 139 | 12.9 | 19.3 | 10.21 | 0.00 | 0.00 | 84 | 23.6 |
| 20260507010523 | 28 | 139 | 12.9 | 19.3 | 11.38 | 0.00 | 0.00 | 84 | 22.7 |
| 20260507010022 | 28 | 129 | 14.5 | 20.9 | 11.94 | 0.00 | 0.00 | 84 | 22.8 |
| 20260507005547 | 28 | 133 | 12.9 | 20.9 | 12.50 | 0.00 | 0.00 | 84 | 23.2 |
| 20260507005051 | 28 | 132 | 12.9 | 19.3 | 13.08 | 0.00 | 0.00 | 84 | 23.3 |
| 20260507004523 | 29 | 125 | 16.1 | 20.9 | 13.64 | 0.00 | 0.00 | 85 | 22.5 |
| 20260507004022 | 29 | 117 | 16.1 | 24.1 | 14.20 | 0.00 | 0.00 | 85 | 22.2 |
| 20260507003523 | 29 | 131 | 16.1 | 20.9 | 14.76 | 0.00 | 0.00 | 85 | 22.2 |
| 20260507003044 | 29 | 128 | 12.9 | 20.9 | 15.32 | 0.00 | 0.00 | 85 | 22.5 |
| 20260507002554 | 29 | 126 | 16.1 | 22.5 | 15.88 | 0.00 | 0.00 | 85 | 22.2 |
| 20260507002049 | 29 | 131 | 12.9 | 19.3 | 16.41 | 0.00 | 0.00 | 85 | 21.8 |
| 20260507001525 | 29 | 117 | 16.1 | 22.5 | 16.94 | 0.00 | 0.00 | 85 | 22.0 |
| 20260507001043 | 29 | 124 | 14.5 | 20.9 | 17.48 | 0.00 | 0.00 | 85 | 22.0 |
| 20260507000549 | 29 | 120 | 17.7 | 22.5 | 18.01 | 0.00 | 0.00 | 85 | 22.0 |
| 20260507000049 | 29 | 115 | 17.7 | 22.5 | 18.52 | 0.00 | 0.00 | 85 | 22.0 |
| 20260506235647 | 29 | 120 | 16.1 | 22.5 | 19.05 | 0.00 | 0.00 | 85 | 21.8 |
| 20260506235141 | 29 | 127 | 14.5 | 22.5 | 19.56 | 0.00 | 0.00 | 85 | 22.1 |
| 20260506234545 | 29 | 127 | 12.9 | 19.3 | 20.04 | 0.00 | 0.00 | 85 | 22.9 |
| 20260506234022 | 29 | 112 | 17.7 | 25.7 | 20.52 | 0.00 | 0.00 | 85 | 22.6 |
| 20260506233522 | 29 | 121 | 17.7 | 22.5 | 21.01 | 0.00 | 0.00 | 85 | 21.9 |
| 20260506233023 | 29 | 113 | 17.7 | 24.1 | 21.49 | 0.00 | 0.00 | 85 | 22.5 |
| 20260506232548 | 29 | 111 | 17.7 | 22.5 | 21.95 | 0.00 | 0.00 | 85 | 22.5 |
| 20260506232051 | 29 | 120 | 16.1 | 24.1 | 22.40 | 0.00 | 0.00 | 85 | 22.7 |
| 20260506231544 | 29 | 125 | 16.1 | 25.7 | 22.83 | 0.00 | 0.00 | 85 | 22.4 |
| 20260506231042 | 29 | 118 | 17.7 | 25.7 | 23.27 | 0.00 | 0.00 | 85 | 22.6 |
| 20260506230525 | 29 | 116 | 19.3 | 25.7 | 23.70 | 0.00 | 0.00 | 85 | 22.8 |
| 20260506230043 | 29 | 129 | 12.9 | 20.9 | 24.10 | 0.00 | 0.00 | 85 | 22.1 |
| 20260506225558 | 29 | 134 | 14.5 | 22.5 | 24.51 | 0.00 | 0.00 | 85 | 22.2 |
| 20260506225053 | 29 | 126 | 14.5 | 22.5 | 24.89 | 0.00 | 0.00 | 85 | 22.5 |
| 20260506224521 | 29 | 125 | 16.1 | 29.0 | 25.27 | 0.00 | 0.00 | 85 | 22.3 |
| 20260506224043 | 29 | 136 | 12.9 | 25.7 | 2.57 | 0.00 | 0.00 | 85 | 22.1 |
| 20260506223523 | 29 | 132 | 14.5 | 24.1 | 2.59 | 0.00 | 0.00 | 85 | 22.1 |
| 20260506223038 | 29 | 135 | 12.9 | 22.5 | 2.62 | 0.00 | 0.00 | 85 | 22.0 |
| 20260506222637 | 29 | 128 | 14.5 | 22.5 | 2.67 | 0.00 | 0.00 | 85 | 22.2 |
| 20260506222134 | 29 | 131 | 14.5 | 25.7 | 2.69 | 0.00 | 0.00 | 85 | 22.5 |
| 20260506221524 | 29 | 117 | 12.9 | 19.3 | 2.72 | 0.00 | 0.00 | 86 | 21.7 |
| 20260506221046 | 29 | 130 | 12.9 | 20.9 | 2.74 | 0.00 | 0.00 | 86 | 21.8 |
| 20260506220527 | 29 | 122 | 12.9 | 20.9 | 2.77 | 0.00 | 0.00 | 85 | 21.7 |
| 20260506220114 | 29 | 120 | 11.3 | 22.5 | 2.79 | 0.00 | 0.00 | 85 | 21.6 |
| 20260506215619 | 29 | 153 | 9.7 | 17.7 | 2.82 | 0.00 | 0.00 | 85 | 21.6 |
| 20260506215111 | 29 | 120 | 12.9 | 22.5 | 2.84 | 0.00 | 0.00 | 85 | 22.1 |
| 20260506214522 | 29 | 136 | 11.3 | 22.5 | 2.87 | 0.00 | 0.00 | 85 | 22.3 |
| 20260506214044 | 28 | 127 | 12.9 | 22.5 | 2.90 | 0.00 | 0.00 | 84 | 22.4 |
| 20260506213525 | 28 | 108 | 14.5 | 24.1 | 2.92 | 0.00 | 0.00 | 84 | 22.0 |
| 20260506213022 | 28 | 114 | 12.9 | 22.5 | 2.92 | 0.00 | 0.00 | 84 | 22.5 |
| 20260506212617 | 29 | 128 | 12.9 | 20.9 | 2.95 | 0.00 | 0.00 | 85 | 22.3 |
| 20260506212105 | 29 | 144 | 11.3 | 19.3 | 2.97 | 0.00 | 0.00 | 85 | 22.3 |
| 20260506211544 | 29 | 122 | 12.9 | 22.5 | 2.97 | 0.00 | 0.00 | 85 | 22.6 |
| 20260506211045 | 28 | 155 | 11.3 | 24.1 | 3.00 | 0.00 | 0.00 | 84 | 22.5 |
| 20260506210545 | 28 | 148 | 9.7 | 17.7 | 3.00 | 0.00 | 0.00 | 84 | 23.1 |
| 20260506210032 | 28 | 126 | 12.9 | 19.3 | 3.02 | 0.00 | 0.00 | 84 | 22.9 |
| 20260506205618 | 28 | 139 | 12.9 | 22.5 | 3.02 | 0.00 | 0.00 | 84 | 22.8 |
| 20260506205138 | 28 | 132 | 11.3 | 17.7 | 3.02 | 0.00 | 0.00 | 84 | 23.0 |
| 20260506204522 | 28 | 108 | 9.7 | 19.3 | 3.02 | 0.00 | 0.00 | 84 | 22.6 |
| 20260506204023 | 28 | 121 | 12.9 | 20.9 | 3.02 | 0.00 | 0.00 | 84 | 22.6 |
| 20260506203553 | 28 | 129 | 9.7 | 22.5 | 3.02 | 0.00 | 0.00 | 84 | 22.7 |
| 20260506203038 | 28 | 174 | 9.7 | 16.1 | 3.05 | 0.00 | 0.00 | 84 | 23.0 |
| 20260506202715 | 28 | 120 | 11.3 | 19.3 | 3.05 | 0.00 | 0.00 | 83 | 23.6 |
| 20260506202113 | 28 | 179 | 9.7 | 17.7 | 3.05 | 0.00 | 0.00 | 83 | 24.2 |
| 20260506201529 | 28 | 118 | 9.7 | 19.3 | 3.05 | 0.00 | 0.00 | 83 | 24.9 |
| 20260506201044 | 28 | 97 | 11.3 | 19.3 | 3.02 | 0.00 | 0.00 | 83 | 25.3 |
| 20260506200541 | 27 | 138 | 9.7 | 20.9 | 3.02 | 0.00 | 0.00 | 82 | 26.2 |
| 20260506200042 | 27 | 144 | 12.9 | 20.9 | 3.02 | 0.00 | 0.00 | 82 | 26.3 |
| 20260506195617 | 28 | 115 | 9.7 | 16.1 | 3.02 | 0.00 | 0.00 | 83 | 26.6 |
| 20260506195132 | 27 | 152 | 8.0 | 17.7 | 3.02 | 0.00 | 0.00 | 82 | 26.8 |
| 20260506194523 | 27 | 154 | 9.7 | 16.1 | 3.02 | 0.00 | 0.00 | 82 | 27.1 |
| 20260506194025 | 27 | 132 | 6.4 | 20.9 | 3.00 | 0.00 | 0.00 | 81 | 27.3 |
| 20260506193524 | 27 | 98 | 6.4 | 14.5 | 3.00 | 0.00 | 0.00 | 81 | 26.8 |
| 20260506193037 | 27 | 153 | 8.0 | 16.1 | 3.00 | 0.00 | 0.00 | 81 | 26.8 |
| 20260506192636 | 27 | 105 | 9.7 | 16.1 | 2.97 | 0.00 | 0.00 | 81 | 26.7 |
| 20260506192108 | 27 | 153 | 8.0 | 14.5 | 2.97 | 0.00 | 0.00 | 82 | 26.8 |
| 20260506191521 | 26 | 60 | 3.2 | 8.0 | 2.95 | 0.00 | 0.00 | 80 | 26.6 |
| 20260506191103 | 26 | 38 | 4.8 | 8.0 | 2.95 | 0.00 | 0.00 | 80 | 26.5 |
| 20260506190623 | 27 | 104 | 6.4 | 16.1 | 2.92 | 0.00 | 0.00 | 81 | 26.0 |
| 20260506190041 | 26 | 24 | 3.2 | 8.0 | 2.92 | 0.00 | 0.00 | 80 | 26.0 |
| 20260506185621 | 26 | 79 | 6.4 | 9.7 | 2.90 | 0.00 | 0.00 | 79 | 26.4 |
| 20260506185059 | 26 | 211 | 6.4 | 12.9 | 2.87 | 0.00 | 0.00 | 79 | 27.2 |
| 20260506184546 | 26 | 139 | 6.4 | 11.3 | 2.87 | 0.00 | 0.00 | 79 | 27.0 |
| 20260506184047 | 26 | 78 | 4.8 | 8.0 | 2.84 | 0.00 | 0.00 | 79 | 27.3 |
| 20260506183545 | 26 | 140 | 6.4 | 14.5 | 2.82 | 0.00 | 0.00 | 80 | 27.4 |
| 20260506183038 | 26 | 167 | 4.8 | 14.5 | 2.79 | 0.00 | 0.00 | 79 | 28.1 |
| 20260506182629 | 25 | 174 | 3.2 | 8.0 | 2.77 | 0.00 | 0.00 | 78 | 28.8 |
| 20260506182107 | 25 | 149 | 6.4 | 11.3 | 2.74 | 0.00 | 0.00 | 78 | 29.2 |
| 20260506181524 | 25 | 271 | 4.8 | 9.7 | 2.72 | 0.00 | 0.00 | 77 | 29.2 |
| 20260506181121 | 25 | 232 | 4.8 | 11.3 | 2.69 | 0.00 | 0.00 | 78 | 29.7 |
| 20260506180603 | 25 | 164 | 4.8 | 12.9 | 2.64 | 0.00 | 0.00 | 77 | 30.0 |
| 20260506180048 | 24 | 281 | 4.8 | 8.0 | 2.62 | 0.00 | 0.00 | 76 | 30.9 |
| 20260506175618 | 24 | 274 | 3.2 | 8.0 | 2.59 | 0.00 | 0.00 | 76 | 30.7 |
| 20260506175103 | 24 | 165 | 4.8 | 11.3 | 2.57 | 0.00 | 0.00 | 76 | 31.0 |
| 20260506174544 | 24 | 180 | 8.0 | 12.9 | 25.35 | 0.00 | 0.00 | 76 | 31.3 |
| 20260506174023 | 24 | 194 | 4.8 | 11.3 | 24.99 | 0.00 | 0.00 | 76 | 31.9 |
| 20260506173548 | 24 | 177 | 6.4 | 9.7 | 24.64 | 0.00 | 0.00 | 76 | 32.3 |
| 20260506173046 | 23 | 134 | 1.6 | 6.4 | 24.28 | 0.00 | 0.00 | 75 | 31.6 |
| 20260506172618 | 23 | 133 | 4.8 | 9.7 | 23.90 | 0.00 | 0.00 | 74 | 32.9 |
| 20260506172128 | 23 | 149 | 6.4 | 12.9 | 23.50 | 0.00 | 0.00 | 74 | 34.2 |
| 20260506171524 | 23 | 177 | 8.0 | 12.9 | 23.09 | 0.00 | 0.00 | 74 | 34.6 |
| 20260506171118 | 23 | 172 | 6.4 | 12.9 | 22.66 | 0.00 | 0.00 | 74 | 35.2 |
| 20260506170715 | 22 | 186 | 8.0 | 14.5 | 22.23 | 0.00 | 0.00 | 73 | 36.2 |
| 20260506165639 | 22 | 201 | 8.0 | 12.9 | 21.36 | 0.00 | 0.00 | 72 | 37.1 |
| 20260506165105 | 22 | 173 | 4.8 | 11.3 | 20.90 | 0.00 | 0.00 | 72 | 36.5 |
| 20260506164525 | 22 | 181 | 6.4 | 12.9 | 20.45 | 0.00 | 0.00 | 72 | 35.7 |
| 20260506164023 | 22 | 167 | 4.8 | 11.3 | 19.96 | 0.00 | 0.00 | 72 | 35.6 |
| 20260506163547 | 22 | 136 | 4.8 | 9.7 | 19.48 | 0.00 | 0.00 | 72 | 36.8 |
| 20260506163116 | 21 | 307 | 1.6 | 6.4 | 18.97 | 0.00 | 0.00 | 71 | 37.5 |
| 20260506162650 | 21 | 132 | 4.8 | 8.0 | 18.47 | 0.00 | 0.00 | 71 | 37.6 |
| 20260506162127 | 21 | 332 | 3.2 | 4.8 | 17.96 | 0.00 | 0.00 | 70 | 39.0 |
| 20260506161527 | 21 | 293 | 3.2 | 6.4 | 17.42 | 0.00 | 0.00 | 70 | 39.4 |
| 20260506161044 | 20 | 317 | 3.2 | 4.8 | 16.92 | 0.00 | 0.00 | 69 | 40.3 |
| 20260506160546 | 20 | 313 | 3.2 | 4.8 | 16.38 | 0.00 | 0.00 | 69 | 40.9 |
| 20260506160022 | 20 | 271 | 1.6 | 4.8 | 15.85 | 0.00 | 0.00 | 69 | 41.5 |
| 20260506155552 | 20 | 271 | 3.2 | 6.4 | 15.32 | 0.00 | 0.00 | 68 | 42.1 |
| 20260506155043 | 20 | 251 | 3.2 | 6.4 | 14.78 | 0.00 | 0.00 | 68 | 42.3 |
| 20260506154523 | 20 | 229 | 4.8 | 8.0 | 14.22 | 0.00 | 0.00 | 68 | 42.1 |
| 20260506154024 | 20 | 166 | 1.6 | 4.8 | 13.67 | 0.00 | 0.00 | 68 | 42.1 |
| 20260506153545 | 20 | 163 | 3.2 | 4.8 | 13.11 | 0.00 | 0.00 | 68 | 42.9 |
| 20260506153024 | 20 | 164 | 1.6 | 4.8 | 12.55 | 0.00 | 0.00 | 68 | 43.1 |
| 20260506152539 | 19 | 157 | 1.6 | 4.8 | 11.99 | 0.00 | 0.00 | 67 | 43.7 |
| 20260506152046 | 19 | 268 | 1.6 | 4.8 | 11.43 | 0.00 | 0.00 | 67 | 44.6 |
| 20260506151522 | 18 | 315 | 3.2 | 4.8 | 10.87 | 0.00 | 0.00 | 66 | 46.5 |
| 20260506151043 | 18 | 293 | 4.8 | 8.0 | 10.31 | 0.00 | 0.00 | 66 | 46.6 |
| 20260506150530 | 18 | 301 | 3.2 | 6.4 | 9.73 | 0.00 | 0.00 | 65 | 47.6 |
| 20260506150058 | 18 | 327 | 6.4 | 9.7 | 9.17 | 0.00 | 0.00 | 65 | 47.8 |
| 20260506145634 | 18 | 352 | 4.8 | 8.0 | 8.61 | 0.00 | 0.00 | 65 | 47.8 |
| 20260506145200 | 18 | 342 | 3.2 | 6.4 | 8.03 | 0.00 | 0.00 | 65 | 48.2 |
| 20260506144522 | 17 | 325 | 3.2 | 6.4 | 7.37 | 0.00 | 0.00 | 64 | 49.3 |
| 20260506144021 | 17 | 314 | 4.8 | 6.4 | 6.78 | 0.00 | 0.00 | 64 | 49.4 |
| 20260506143654 | 17 | 300 | 4.8 | 6.4 | 6.20 | 0.00 | 0.00 | 64 | 49.9 |
| 20260506143217 | 17 | 313 | 6.4 | 8.0 | 5.56 | 0.00 | 0.00 | 63 | 50.2 |
| 20260506142859 | 17 | 310 | 4.8 | 8.0 | 4.95 | 0.00 | 0.00 | 63 | 50.6 |
| 20260506142156 | 17 | 310 | 3.2 | 8.0 | 4.34 | 0.00 | 0.00 | 63 | 51.6 |
| 20260506141543 | 16 | 311 | 3.2 | 6.4 | 3.78 | 0.00 | 0.00 | 62 | 52.9 |
| 20260506141129 | 16 | 310 | 4.8 | 6.4 | 3.30 | 0.00 | 0.00 | 62 | 53.6 |
| 20260506140742 | 16 | 310 | 4.8 | 6.4 | 2.84 | 0.00 | 0.00 | 62 | 53.5 |
| 20260506140238 | 16 | 316 | 3.2 | 4.8 | 24.03 | 0.00 | 0.00 | 61 | 54.4 |
| 20260506135838 | 16 | 308 | 1.6 | 4.8 | 19.71 | 0.00 | 0.00 | 61 | 54.5 |
| 20260506135144 | 16 | 312 | 3.2 | 4.8 | 15.90 | 0.00 | 0.00 | 61 | 54.6 |
| 20260506134522 | 15 | 292 | 1.6 | 3.2 | 13.54 | 0.00 | 0.00 | 60 | 55.6 |
| 20260506134024 | 15 | 320 | 0.0 | 3.2 | 13.79 | 0.00 | 0.00 | 60 | 55.3 |
| 20260506133522 | 15 | 320 | 0.0 | 3.2 | 13.79 | 0.00 | 0.00 | 60 | 55.3 |
| 20260506133043 | 15 | 320 | 0.0 | 3.2 | 13.79 | 0.00 | 0.00 | 60 | 55.3 |
| 20260506132642 | 15 | 320 | 0.0 | 3.2 | 13.79 | 0.00 | 0.00 | 60 | 55.3 |
| 20260506132235 | 15 | 320 | 0.0 | 3.2 | 13.79 | 0.00 | 0.00 | 60 | 55.3 |
| 20260506131521 | 15 | 320 | 0.0 | 3.2 | 13.79 | 0.00 | 0.00 | 60 | 55.3 |
| 20260506131102 | 15 | 320 | 0.0 | 3.2 | 13.79 | 0.00 | 0.00 | 60 | 55.3 |
| 20260506130554 | 15 | 320 | 0.0 | 3.2 | 13.79 | 0.00 | 0.00 | 60 | 55.3 |
| 20260506125654 | 15 | 320 | 0.0 | 3.2 | 13.79 | 0.00 | 0.00 | 60 | 55.3 |
| 20260506125125 | 15 | 320 | 0.0 | 3.2 | 13.79 | 0.00 | 0.00 | 60 | 55.3 |
| 20260506124607 | 15 | 320 | 0.0 | 3.2 | 13.79 | 0.00 | 0.00 | 60 | 55.3 |
| 20260506124023 | 15 | 320 | 0.0 | 3.2 | 13.79 | 0.00 | 0.00 | 60 | 55.3 |
| 20260506123524 | 15 | 320 | 0.0 | 3.2 | 13.79 | 0.00 | 0.00 | 60 | 55.3 |
| 20260506123025 | 15 | 320 | 0.0 | 3.2 | 13.79 | 0.00 | 0.00 | 60 | 55.3 |
| 20260506122633 | 15 | 320 | 0.0 | 3.2 | 13.79 | 0.00 | 0.00 | 60 | 55.3 |
| 20260506122035 | 15 | 320 | 0.0 | 3.2 | 13.79 | 0.00 | 0.00 | 60 | 55.3 |
| 20260506121545 | 15 | 320 | 0.0 | 3.2 | 13.79 | 0.00 | 0.00 | 60 | 55.3 |
| 20260506121042 | 15 | 324 | 3.2 | 4.8 | 13.79 | 0.00 | 0.00 | 60 | 54.8 |
| 20260506120534 | 15 | 318 | 3.2 | 4.8 | 13.79 | 0.00 | 0.00 | 60 | 54.4 |
| 20260506120023 | 15 | 308 | 4.8 | 6.4 | 13.79 | 0.00 | 0.00 | 60 | 54.4 |
| 20260506115620 | 15 | 309 | 4.8 | 8.0 | 13.79 | 0.00 | 0.00 | 60 | 54.6 |
| 20260506115133 | 15 | 293 | 3.2 | 6.4 | 13.79 | 0.00 | 0.00 | 60 | 55.3 |
| 20260506114524 | 15 | 278 | 3.2 | 8.0 | 13.79 | 0.00 | 0.00 | 60 | 55.8 |
| 20260506114023 | 15 | 266 | 4.8 | 6.4 | 13.82 | 0.00 | 0.00 | 59 | 55.9 |
| 20260506113544 | 15 | 264 | 4.8 | 6.4 | 13.82 | 0.00 | 0.00 | 60 | 55.3 |
| 20260506113023 | 15 | 277 | 6.4 | 8.0 | 13.82 | 0.00 | 0.00 | 60 | 54.8 |
| 20260506112547 | 15 | 287 | 6.4 | 8.0 | 13.82 | 0.00 | 0.00 | 60 | 54.7 |
| 20260506112106 | 15 | 292 | 6.4 | 8.0 | 13.82 | 0.00 | 0.00 | 60 | 53.8 |
| 20260506111524 | 15 | 295 | 6.4 | 11.3 | 13.82 | 0.00 | 0.00 | 60 | 54.0 |
| 20260506111043 | 15 | 295 | 6.4 | 9.7 | 13.82 | 0.00 | 0.00 | 60 | 54.3 |
| 20260506110546 | 15 | 294 | 6.4 | 9.7 | 13.82 | 0.00 | 0.00 | 60 | 54.1 |
| 20260506110125 | 15 | 287 | 6.4 | 9.7 | 13.82 | 0.00 | 0.00 | 60 | 54.3 |
| 20260506105701 | 15 | 298 | 6.4 | 9.7 | 13.84 | 0.00 | 0.00 | 60 | 54.4 |
| 20260506105124 | 15 | 310 | 6.4 | 9.7 | 13.84 | 0.00 | 0.00 | 60 | 54.4 |
| 20260506104546 | 15 | 300 | 4.8 | 6.4 | 13.84 | 0.00 | 0.00 | 60 | 54.8 |
| 20260506104024 | 15 | 305 | 3.2 | 4.8 | 13.84 | 0.00 | 0.00 | 60 | 54.4 |
| 20260506103526 | 15 | 297 | 3.2 | 4.8 | 13.87 | 0.00 | 0.00 | 60 | 53.8 |
| 20260506103114 | 16 | 292 | 3.2 | 4.8 | 13.87 | 0.00 | 0.00 | 61 | 53.0 |
| 20260506102705 | 16 | 299 | 1.6 | 4.8 | 13.87 | 0.00 | 0.00 | 61 | 52.7 |
| 20260506102204 | 16 | 285 | 3.2 | 8.0 | 13.89 | 0.00 | 0.00 | 61 | 52.1 |
| 20260506101551 | 16 | 282 | 4.8 | 6.4 | 13.89 | 0.00 | 0.00 | 61 | 51.8 |
| 20260506101044 | 16 | 286 | 4.8 | 6.4 | 13.89 | 0.00 | 0.00 | 62 | 50.9 |
| 20260506100540 | 16 | 292 | 4.8 | 6.4 | 13.89 | 0.00 | 0.00 | 62 | 50.2 |
| 20260506100105 | 16 | 303 | 6.4 | 9.7 | 13.92 | 0.00 | 0.00 | 62 | 49.7 |
| 20260506095703 | 16 | 307 | 6.4 | 11.3 | 13.92 | 0.00 | 0.00 | 62 | 49.4 |
| 20260506095124 | 16 | 306 | 6.4 | 11.3 | 13.92 | 0.00 | 0.00 | 62 | 49.2 |
| 20260506094545 | 16 | 308 | 6.4 | 11.3 | 13.92 | 0.00 | 0.00 | 62 | 49.2 |
| 20260506094024 | 16 | 308 | 8.0 | 12.9 | 13.92 | 0.00 | 0.00 | 62 | 49.1 |
| 20260506093525 | 17 | 306 | 6.4 | 12.9 | 13.92 | 0.00 | 0.00 | 63 | 48.9 |
| 20260506093021 | 17 | 310 | 8.0 | 12.9 | 13.92 | 0.00 | 0.00 | 63 | 48.6 |
| 20260506092549 | 17 | 307 | 8.0 | 12.9 | 13.92 | 0.00 | 0.00 | 63 | 48.2 |
| 20260506092043 | 17 | 310 | 8.0 | 14.5 | 13.92 | 0.00 | 0.00 | 63 | 47.7 |
| 20260506091523 | 17 | 311 | 9.7 | 16.1 | 13.92 | 0.00 | 0.00 | 64 | 47.3 |
| 20260506091044 | 17 | 317 | 11.3 | 24.1 | 13.92 | 0.00 | 0.00 | 64 | 47.3 |
| 20260506090537 | 17 | 314 | 9.7 | 19.3 | 13.92 | 0.00 | 0.00 | 63 | 47.4 |
| 20260506090022 | 17 | 313 | 9.7 | 16.1 | 13.92 | 0.00 | 0.00 | 63 | 47.6 |
| 20260506085623 | 17 | 309 | 6.4 | 12.9 | 13.92 | 0.00 | 0.00 | 63 | 47.3 |
| 20260506085127 | 17 | 314 | 8.0 | 16.1 | 13.92 | 0.00 | 0.00 | 63 | 47.3 |
| 20260506084523 | 17 | 314 | 6.4 | 12.9 | 13.92 | 0.00 | 0.00 | 63 | 47.4 |
| 20260506084022 | 17 | 312 | 6.4 | 9.7 | 13.94 | 0.00 | 0.00 | 63 | 47.3 |
| 20260506083524 | 17 | 308 | 4.8 | 8.0 | 13.94 | 0.00 | 0.00 | 64 | 46.6 |
| 20260506083044 | 17 | 315 | 6.4 | 12.9 | 13.94 | 0.00 | 0.00 | 64 | 45.6 |
| 20260506082646 | 17 | 319 | 6.4 | 14.5 | 13.94 | 0.00 | 0.00 | 64 | 45.8 |
| 20260506082142 | 17 | 318 | 6.4 | 12.9 | 13.94 | 0.00 | 0.00 | 64 | 45.9 |
| 20260506081527 | 17 | 312 | 6.4 | 14.5 | 13.94 | 0.00 | 0.00 | 64 | 46.1 |
| 20260506081049 | 17 | 314 | 6.4 | 11.3 | 13.94 | 0.00 | 0.00 | 64 | 46.1 |
| 20260506080527 | 17 | 312 | 6.4 | 12.9 | 13.94 | 0.00 | 0.00 | 64 | 45.5 |
| 20260506073524 | 18 | 321 | 6.4 | 9.7 | 13.97 | 0.00 | 0.00 | 65 | 43.9 |